Time;durP1;ratioP1;P1;durP2;ratioP2;P2;SDS_P1;SDS_P2;PMS_P1;PMS_P2;Temp;Humidity;BMP_temperature;BMP_pressure;BME280_temperature;BME280_humidity;BME280_pressure;Samples;Min_cycle;Max_cycle;Signal;HPM_P1;HPM_P2
2023/02/22 05:31:17;;;;;;;36.80;19.38;;;9.70;84.60;;;;;;6108349;23;20357;-84
2023/02/22 05:33:42;;;;;;;45.75;21.70;;;9.70;84.40;;;;;;6126776;23;20018;-85
2023/02/22 05:36:08;;;;;;;36.78;18.15;;;9.70;84.50;;;;;;6129715;23;20006;-85
2023/02/22 05:38:42;;;;;;;44.00;20.30;;;9.70;84.40;;;;;;6128099;23;20014;-85
2023/02/22 05:41:09;;;;;;;41.03;19.88;;;9.80;84.20;;;;;;6105933;23;20010;-85
2023/02/22 05:43:36;;;;;;;47.50;19.52;;;9.80;84.30;;;;;;6127948;23;20002;-85
2023/02/22 05:46:04;;;;;;;38.13;18.67;;;9.80;84.10;;;;;;6129902;23;20006;-85
2023/02/22 05:48:30;;;;;;;43.70;18.20;;;9.80;84.20;;;;;;6129715;23;20002;-85
2023/02/22 05:50:56;;;;;;;41.63;18.77;;;9.80;84.20;;;;;;6128176;23;20002;-85
2023/02/22 05:53:23;;;;;;;36.38;17.90;;;9.80;84.10;;;;;;6105562;23;20010;-85
2023/02/22 05:55:49;;;;;;;40.47;18.65;;;9.80;84.10;;;;;;6102353;23;20082;-85
2023/02/22 05:58:15;;;;;;;39.38;19.70;;;9.80;84.10;;;;;;6132253;23;20009;-85
2023/02/22 06:00:41;;;;;;;35.97;18.42;;;9.70;84.00;;;;;;6128007;23;20002;-86
2023/02/22 06:03:10;;;;;;;33.33;18.65;;;9.80;84.10;;;;;;6128026;23;20006;-86
2023/02/22 06:05:36;;;;;;;41.25;17.98;;;9.70;84.00;;;;;;6128652;23;20002;-85
2023/02/22 06:08:04;;;;;;;37.55;18.05;;;9.70;84.10;;;;;;6102862;23;20002;-86
2023/02/22 06:10:29;;;;;;;43.35;18.63;;;9.80;84.10;;;;;;6130943;23;20002;-85
2023/02/22 06:12:56;;;;;;;41.80;19.42;;;9.80;84.10;;;;;;6128732;23;20085;-86
2023/02/22 06:15:23;;;;;;;35.13;18.92;;;9.80;84.00;;;;;;6131849;23;20006;-86
2023/02/22 06:17:48;;;;;;;36.83;18.90;;;9.80;84.00;;;;;;6104532;23;20792;-86
2023/02/22 06:20:20;;;;;;;36.47;17.95;;;9.80;84.00;;;;;;6106501;23;20010;-85
2023/02/22 06:22:50;;;;;;;40.78;18.35;;;9.70;84.00;;;;;;6106502;23;20096;-85
2023/02/22 06:25:17;;;;;;;;;;;9.80;84.10;;;;;;6105872;23;20036;-85
2023/02/22 06:27:42;;;;;;;36.72;17.33;;;9.80;83.90;;;;;;6106386;23;19900;-85
2023/02/22 06:30:10;;;;;;;36.50;17.58;;;9.80;84.00;;;;;;6105187;23;20386;-86
2023/02/22 06:32:36;;;;;;;41.10;20.13;;;9.80;83.90;;;;;;6134208;23;20030;-85
2023/02/22 06:35:02;;;;;;;39.65;17.80;;;9.70;84.20;;;;;;6105243;23;20430;-85
2023/02/22 06:37:30;;;;;;;40.63;18.27;;;9.80;84.30;;;;;;6132796;23;20009;-85
2023/02/22 06:39:56;;;;;;;33.05;17.40;;;9.80;84.20;;;;;;6105081;23;20593;-77
2023/02/22 06:42:22;;;;;;;43.30;17.67;;;9.80;84.40;;;;;;6130088;23;20068;-88
2023/02/22 06:44:48;;;;;;;37.85;17.63;;;9.80;84.50;;;;;;6105380;23;20010;-82
2023/02/22 06:47:14;;;;;;;39.58;17.30;;;9.80;84.40;;;;;;6130177;23;20033;-82
2023/02/22 06:49:40;;;;;;;37.90;16.38;;;9.80;84.40;;;;;;6132016;23;20518;-80
2023/02/22 06:52:07;;;;;;;33.90;17.83;;;9.80;84.40;;;;;;6130154;23;19998;-83
2023/02/22 06:54:38;;;;;;;38.17;17.80;;;9.80;84.40;;;;;;6131081;23;20006;-79
2023/02/22 06:57:03;;;;;;;40.33;18.85;;;9.90;84.20;;;;;;6130714;23;20081;-87
2023/02/22 06:59:29;;;;;;;38.35;18.35;;;9.90;84.40;;;;;;6130119;23;20008;-86
2023/02/22 07:01:55;;;;;;;46.30;19.05;;;9.90;84.20;;;;;;6105056;23;20069;-83
2023/02/22 07:04:20;;;;;;;35.58;17.73;;;9.90;84.10;;;;;;6104076;23;20006;-78
2023/02/22 07:06:47;;;;;;;38.70;17.50;;;9.90;84.10;;;;;;6132140;23;19998;-80
2023/02/22 07:09:14;;;;;;;36.40;16.40;;;10.00;84.00;;;;;;6130026;23;20002;-77
2023/02/22 07:11:43;;;;;;;35.58;15.73;;;9.90;83.90;;;;;;6129831;23;20002;-79
2023/02/22 07:14:09;;;;;;;35.58;16.10;;;9.90;84.20;;;;;;6129800;23;20077;-78
2023/02/22 07:16:34;;;;;;;38.97;17.13;;;9.90;84.20;;;;;;6103338;23;20021;-78
2023/02/22 07:19:00;;;;;;;31.40;17.33;;;9.90;84.10;;;;;;6130261;23;20419;-76
2023/02/22 07:21:29;;;;;;;46.03;18.17;;;9.90;84.20;;;;;;6103644;23;20010;-77
2023/02/22 07:23:57;;;;;;;35.70;16.25;;;9.90;84.50;;;;;;6129452;23;20008;-78
2023/02/22 07:26:25;;;;;;;38.92;17.13;;;9.90;84.50;;;;;;6104226;23;20013;-78
2023/02/22 07:28:53;;;;;;;39.13;17.02;;;10.00;84.40;;;;;;6128724;23;19998;-80
2023/02/22 07:31:19;;;;;;;36.97;16.75;;;10.00;84.40;;;;;;6113355;23;20041;-81
2023/02/22 07:33:48;;;;;;;46.40;18.85;;;10.00;84.40;;;;;;6129600;23;20347;-79
2023/02/22 07:36:16;;;;;;;40.15;19.50;;;10.00;84.30;;;;;;6129778;23;20014;-82
2023/02/22 07:38:44;;;;;;;46.08;21.00;;;10.10;84.10;;;;;;6128154;23;20025;-84
2023/02/22 07:41:10;;;;;;;37.35;17.35;;;10.10;84.20;;;;;;6130141;23;20009;-81
2023/02/22 07:43:35;;;;;;;39.38;18.27;;;10.10;84.10;;;;;;6129597;23;20001;-86
2023/02/22 07:46:02;;;;;;;36.10;17.85;;;10.10;84.20;;;;;;6127656;23;20034;-81
2023/02/22 07:48:29;;;;;;;41.33;18.05;;;10.10;84.20;;;;;;6128999;23;19998;-91
2023/02/22 07:50:56;;;;;;;38.10;16.40;;;10.20;84.20;;;;;;6128542;23;20005;-85
2023/02/22 07:53:32;;;;;;;43.15;18.30;;;10.20;84.10;;;;;;6129231;23;20025;-84
2023/02/22 07:56:00;;;;;;;38.17;15.80;;;10.20;84.10;;;;;;6127356;23;20014;-84
2023/02/22 07:58:27;;;;;;;31.02;15.15;;;10.20;84.00;;;;;;6127950;23;20016;-85
2023/02/22 08:00:53;;;;;;;35.22;17.48;;;10.20;84.00;;;;;;6128962;23;20312;-86
2023/02/22 08:03:22;;;;;;;32.90;15.95;;;10.30;83.70;;;;;;6128989;23;20033;-85
2023/02/22 08:05:56;;;;;;;29.50;14.23;;;10.30;83.80;;;;;;6128630;23;19997;-85
2023/02/22 08:08:22;;;;;;;31.13;14.98;;;10.30;83.90;;;;;;6128090;23;20029;-85
2023/02/22 08:10:49;;;;;;;31.45;14.75;;;10.30;83.90;;;;;;6127538;23;20033;-85
2023/02/22 08:13:15;;;;;;;40.20;17.17;;;10.40;83.80;;;;;;6129400;23;20056;-85
2023/02/22 08:15:45;;;;;;;35.50;13.70;;;10.50;83.70;;;;;;6127239;23;20006;-84
2023/02/22 08:18:16;;;;;;;36.50;17.13;;;10.50;83.60;;;;;;6127975;23;20016;-86
2023/02/22 08:20:44;;;;;;;34.67;14.93;;;10.60;83.40;;;;;;6127374;23;20425;-86
2023/02/22 08:23:11;;;;;;;27.67;13.48;;;10.60;83.50;;;;;;6129435;23;20002;-85
2023/02/22 08:25:36;;;;;;;29.23;13.90;;;10.60;83.50;;;;;;6129486;23;20021;-85
2023/02/22 08:28:06;;;;;;;28.58;14.23;;;10.70;83.40;;;;;;6127366;23;20339;-86
2023/02/22 08:30:33;;;;;;;37.33;15.43;;;10.70;83.50;;;;;;6129181;23;20006;-84
2023/02/22 08:33:01;;;;;;;30.80;15.60;;;10.70;83.20;;;;;;6129377;23;20446;-82
2023/02/22 08:35:28;;;;;;;32.10;15.20;;;10.70;83.20;;;;;;6128785;23;20006;-81
2023/02/22 08:37:58;;;;;;;33.00;16.10;;;10.80;83.40;;;;;;6102909;23;20072;-81
2023/02/22 08:40:26;;;;;;;36.00;14.90;;;10.70;83.30;;;;;;6103106;23;19994;-81
2023/02/22 08:42:52;;;;;;;31.73;15.77;;;10.80;83.50;;;;;;6114089;23;20060;-82
2023/02/22 08:45:19;;;;;;;32.03;15.65;;;10.80;83.50;;;;;;6127798;23;20001;-82
2023/02/22 08:47:45;;;;;;;33.30;15.73;;;10.80;83.30;;;;;;6118268;23;20009;-82
2023/02/22 08:50:18;;;;;;;36.97;15.43;;;10.80;83.20;;;;;;6099471;23;20427;-82
2023/02/22 08:52:44;;;;;;;32.28;14.75;;;10.90;83.10;;;;;;6128542;23;20588;-83
2023/02/22 08:55:10;;;;;;;29.27;14.25;;;10.90;83.20;;;;;;6125300;23;20009;-82
2023/02/22 08:57:35;;;;;;;30.40;13.80;;;11.00;83.20;;;;;;6126262;23;20021;-82
2023/02/22 09:00:02;;;;;;;30.00;14.10;;;11.00;83.00;;;;;;6128609;23;20002;-81
2023/02/22 09:02:28;;;;;;;25.75;13.48;;;11.10;82.90;;;;;;6128457;23;20006;-82
2023/02/22 09:04:54;;;;;;;28.10;13.43;;;11.10;82.70;;;;;;6126845;23;20078;-82
2023/02/22 09:07:19;;;;;;;31.20;14.23;;;11.20;82.70;;;;;;6122540;23;20001;-81
2023/02/22 09:09:45;;;;;;;25.45;11.32;;;11.30;82.60;;;;;;6128218;23;20005;-82
2023/02/22 09:12:11;;;;;;;25.98;12.23;;;11.40;82.20;;;;;;6128830;23;20073;-82
2023/02/22 09:14:37;;;;;;;25.27;12.65;;;11.50;82.30;;;;;;6128155;23;20383;-82
2023/02/22 09:17:02;;;;;;;31.10;14.60;;;11.50;82.10;;;;;;6128448;23;20006;-82
2023/02/22 09:19:28;;;;;;;25.58;12.30;;;11.50;82.10;;;;;;6128649;23;20034;-80
2023/02/22 09:21:55;;;;;;;27.92;12.85;;;11.50;82.00;;;;;;6128375;23;20010;-80
2023/02/22 09:24:21;;;;;;;28.23;12.40;;;11.60;81.80;;;;;;6122063;23;20009;-80
2023/02/22 09:26:52;;;;;;;24.90;11.05;;;11.60;81.80;;;;;;6128031;23;20338;-80
2023/02/22 09:29:21;;;;;;;26.88;12.48;;;11.60;81.90;;;;;;6128685;23;20338;-80
2023/02/22 09:31:48;;;;;;;28.17;14.07;;;11.50;82.00;;;;;;6128556;23;20037;-80
2023/02/22 09:34:15;;;;;;;31.30;14.00;;;11.50;82.20;;;;;;6128108;23;20026;-80
2023/02/22 09:36:42;;;;;;;28.17;12.65;;;11.50;82.20;;;;;;6128359;23;20013;-80
2023/02/22 09:39:10;;;;;;;23.40;11.85;;;11.50;82.00;;;;;;6128575;23;20010;-79
2023/02/22 09:41:54;;;;;;;33.72;13.50;;;11.40;82.10;;;;;;6128478;23;20036;-79
2023/02/22 09:44:36;;;;;;;27.10;11.60;;;11.50;82.10;;;;;;6128484;23;20006;-79
2023/02/22 09:47:03;;;;;;;25.65;12.38;;;11.40;82.10;;;;;;6128281;23;20010;-80
2023/02/22 09:49:46;;;;;;;27.27;12.00;;;11.40;82.30;;;;;;6128568;23;19998;-79
2023/02/22 09:52:26;;;;;;;32.03;12.75;;;11.40;82.30;;;;;;6098183;23;20744;-79
2023/02/22 09:55:19;;;;;;;27.83;12.27;;;11.30;82.60;;;;;;6130383;23;20005;-79
2023/02/22 09:57:46;;;;;;;28.95;11.95;;;11.30;82.70;;;;;;6130014;23;20030;-80
2023/02/22 10:00:19;;;;;;;27.27;12.23;;;11.40;82.90;;;;;;6130074;23;20053;-80
2023/02/22 10:02:58;;;;;;;29.42;13.68;;;11.40;83.00;;;;;;6104219;23;20034;-80
2023/02/22 10:05:32;;;;;;;22.08;10.57;;;11.50;83.10;;;;;;6130224;23;20012;-82
2023/02/22 10:08:04;;;;;;;22.75;10.88;;;11.50;82.90;;;;;;6129898;23;20006;-82
2023/02/22 10:10:38;;;;;;;27.65;12.77;;;11.50;82.90;;;;;;6129958;23;20005;-81
2023/02/22 10:13:09;;;;;;;28.48;12.57;;;11.50;83.10;;;;;;6130409;23;20033;-80
2023/02/22 10:15:51;;;;;;;25.05;11.18;;;11.50;83.00;;;;;;6126310;23;20029;-80
2023/02/22 10:18:45;;;;;;;20.33;9.80;;;11.60;82.80;;;;;;6129557;23;20010;-80
2023/02/22 10:21:27;;;;;;;22.63;10.18;;;11.50;82.80;;;;;;6124700;23;20006;-80
2023/02/22 10:24:12;;;;;;;19.65;9.00;;;11.70;82.50;;;;;;6124951;23;20006;-81
2023/02/22 10:26:42;;;;;;;16.80;8.55;;;11.80;82.40;;;;;;6128347;23;20002;-81
2023/02/22 10:29:31;;;;;;;17.20;8.50;;;11.80;82.20;;;;;;6129777;23;20009;-83
2023/02/22 10:32:01;;;;;;;20.10;8.35;;;11.90;82.20;;;;;;6126502;23;20022;-76
2023/02/22 10:34:32;;;;;;;13.32;7.07;;;11.80;82.10;;;;;;6103821;23;20064;-79
2023/02/22 10:37:07;;;;;;;19.67;9.02;;;11.80;82.00;;;;;;6130008;23;20006;-81
2023/02/22 10:39:35;;;;;;;16.42;7.55;;;11.80;82.10;;;;;;6100299;23;20346;-84
2023/02/22 10:42:07;;;;;;;14.98;6.80;;;11.80;82.10;;;;;;6129701;23;20016;-82
2023/02/22 10:44:34;;;;;;;13.55;6.93;;;11.70;82.20;;;;;;6103965;23;20061;-81
2023/02/22 10:47:02;;;;;;;20.08;7.57;;;11.60;82.40;;;;;;6126556;23;20082;-81
2023/02/22 10:49:35;;;;;;;18.98;8.10;;;11.60;82.50;;;;;;6130091;23;20383;-81
2023/02/22 10:52:03;;;;;;;16.17;8.07;;;11.60;82.70;;;;;;6129407;23;20009;-83
2023/02/22 10:54:39;;;;;;;17.02;6.97;;;11.60;82.60;;;;;;6097633;23;20017;-83
2023/02/22 10:57:06;;;;;;;14.23;6.28;;;11.60;82.80;;;;;;6129188;23;20006;-81
2023/02/22 10:59:40;;;;;;;14.85;6.13;;;11.60;82.80;;;;;;6129348;23;20001;-83
2023/02/22 11:02:34;;;;;;;12.60;4.95;;;11.50;82.90;;;;;;6126017;23;20002;-83
2023/02/22 11:05:03;;;;;;;14.80;6.25;;;11.60;82.90;;;;;;6097581;23;20018;-86
2023/02/22 11:07:32;;;;;;;15.00;6.50;;;11.60;83.00;;;;;;6103403;23;20012;-83
2023/02/22 11:10:04;;;;;;;13.52;6.60;;;11.50;82.80;;;;;;6103903;23;20010;-83
2023/02/22 11:12:32;;;;;;;12.13;5.50;;;11.50;83.10;;;;;;6104263;23;20149;-84
2023/02/22 11:15:17;;;;;;;10.98;5.72;;;11.60;83.00;;;;;;6100264;23;20006;-85
2023/02/22 11:17:46;;;;;;;11.60;5.47;;;11.60;83.10;;;;;;6102518;23;20013;-85
2023/02/22 11:20:33;;;;;;;12.75;5.22;;;11.70;83.10;;;;;;6095845;23;20006;-86
2023/02/22 11:23:01;;;;;;;8.32;4.35;;;11.60;83.20;;;;;;6102823;23;20058;-85
2023/02/22 11:25:36;;;;;;;9.48;5.20;;;11.50;83.30;;;;;;6128959;23;20041;-86
2023/02/22 11:28:29;;;;;;;8.57;4.78;;;11.50;83.40;;;;;;6127651;23;20438;-86
2023/02/22 11:30:56;;;;;;;11.98;4.70;;;11.60;83.50;;;;;;6125190;23;20485;-86
2023/02/22 11:33:24;;;;;;;12.45;4.88;;;11.60;83.40;;;;;;6128908;23;20006;-87
2023/02/22 11:35:51;;;;;;;10.65;5.18;;;11.60;83.50;;;;;;6129721;23;20002;-85
2023/02/22 11:38:26;;;;;;;10.88;5.45;;;11.60;83.60;;;;;;6129271;23;20006;-87
2023/02/22 11:41:21;;;;;;;13.88;6.97;;;11.60;83.60;;;;;;6129629;23;20006;-86
2023/02/22 11:43:49;;;;;;;13.40;6.55;;;11.60;83.60;;;;;;6135904;23;20001;-83
2023/02/22 11:46:20;;;;;;;12.60;5.82;;;11.70;83.50;;;;;;6138543;23;19994;-82
2023/02/22 11:49:05;;;;;;;11.70;4.90;;;11.70;83.70;;;;;;6110518;23;20013;-84
2023/02/22 11:51:46;;;;;;;14.95;6.95;;;11.70;83.50;;;;;;6135018;23;20005;-83
2023/02/22 11:54:30;;;;;;;14.57;6.10;;;11.70;83.90;;;;;;6133471;23;20008;-85
2023/02/22 11:57:20;;;;;;;12.63;6.75;;;11.70;83.90;;;;;;6104219;23;20009;-86
2023/02/22 12:00:23;;;;;;;11.55;5.97;;;11.70;83.90;;;;;;6105049;23;20036;-88
2023/02/22 12:03:13;;;;;;;15.95;7.18;;;11.70;83.90;;;;;;6104258;23;20017;-88
2023/02/22 12:06:00;;;;;;;17.30;7.10;;;11.70;83.80;;;;;;6130213;23;20002;-89
2023/02/22 12:08:36;;;;;;;12.40;6.57;;;11.70;84.00;;;;;;6103793;23;20001;-90
2023/02/22 12:11:23;;;;;;;13.02;5.90;;;11.70;83.90;;;;;;6130048;23;20002;-81
2023/02/22 12:14:00;;;;;;;9.73;4.55;;;11.60;83.90;;;;;;6129771;23;20037;-86
2023/02/22 12:16:26;;;;;;;9.13;4.32;;;11.70;83.50;;;;;;6103569;23;20013;-77
2023/02/22 12:18:58;;;;;;;7.15;3.92;;;11.70;83.10;;;;;;6103158;23;20010;-76
2023/02/22 12:21:25;;;;;;;8.93;4.82;;;11.90;83.00;;;;;;6103620;23;20018;-76
2023/02/22 12:23:54;;;;;;;5.57;2.95;;;12.00;82.80;;;;;;6128283;23;20006;-79
2023/02/22 12:26:27;;;;;;;3.80;2.35;;;12.20;82.20;;;;;;6099664;23;20383;-78
2023/02/22 12:29:04;;;;;;;5.47;2.70;;;12.20;81.20;;;;;;6126325;23;19998;-78
2023/02/22 12:31:44;;;;;;;5.45;2.00;;;12.20;81.20;;;;;;6111985;23;20024;-77
2023/02/22 12:34:20;;;;;;;6.30;2.38;;;12.20;80.80;;;;;;6126382;23;20016;-78
2023/02/22 12:36:50;;;;;;;7.32;2.60;;;12.20;80.60;;;;;;6125905;23;20454;-78
2023/02/22 12:39:42;;;;;;;4.22;2.15;;;12.30;80.30;;;;;;6127861;23;20013;-78
2023/02/22 12:42:18;;;;;;;2.63;1.50;;;12.30;80.00;;;;;;6126244;23;20006;-78
2023/02/22 12:44:53;;;;;;;2.58;1.48;;;12.20;79.90;;;;;;6127942;23;20446;-78
2023/02/22 12:47:25;;;;;;;4.75;1.60;;;12.20;80.10;;;;;;6126514;23;20016;-78
2023/02/22 12:49:59;;;;;;;3.40;1.30;;;12.20;79.90;;;;;;6128033;23;20004;-78
2023/02/22 12:52:39;;;;;;;1.63;1.08;;;12.00;79.50;;;;;;6128186;23;20077;-78
2023/02/22 12:55:17;;;;;;;2.78;1.55;;;11.90;80.10;;;;;;6127098;23;20021;-77
2023/02/22 12:58:12;;;;;;;3.88;1.50;;;11.80;80.20;;;;;;6126495;23;20014;-77
2023/02/22 13:00:51;;;;;;;3.38;1.38;;;11.80;80.10;;;;;;6127717;23;20016;-77
2023/02/22 13:03:36;;;;;;;5.22;1.70;;;11.70;80.20;;;;;;6128113;23;20005;-77
2023/02/22 13:06:13;;;;;;;2.65;1.20;;;11.60;80.30;;;;;;6128309;23;20026;-77
2023/02/22 13:09:04;;;;;;;1.83;1.40;;;11.60;80.30;;;;;;6126112;23;20002;-76
2023/02/22 13:11:37;;;;;;;2.53;1.00;;;11.60;80.50;;;;;;6088660;23;20338;-76
2023/02/22 13:14:31;;;;;;;4.78;1.25;;;11.60;79.90;;;;;;6128305;23;20061;-77
2023/02/22 13:17:08;;;;;;;3.78;1.60;;;11.70;79.80;;;;;;6127102;23;20006;-77
2023/02/22 13:20:05;;;;;;;6.47;1.75;;;11.70;79.70;;;;;;6128652;23;20010;-77
2023/02/22 13:22:35;;;;;;;4.40;1.60;;;11.80;79.10;;;;;;6128488;23;20010;-77
2023/02/22 13:25:16;;;;;;;4.72;1.48;;;11.80;78.30;;;;;;6128566;23;20010;-77
2023/02/22 13:28:04;;;;;;;5.43;1.63;;;11.80;78.40;;;;;;6128726;23;20009;-77
2023/02/22 13:30:35;;;;;;;6.10;1.85;;;11.90;78.50;;;;;;6128992;23;20021;-78
2023/02/22 13:33:10;;;;;;;5.65;1.83;;;12.10;77.80;;;;;;6124846;23;20029;-75
2023/02/22 13:35:46;;;;;;;4.60;1.58;;;12.20;77.40;;;;;;6130185;23;20009;-76
2023/02/22 13:38:17;;;;;;;4.57;1.92;;;12.20;77.30;;;;;;6130681;23;20014;-77
2023/02/22 13:41:25;;;;;;;2.67;1.40;;;12.20;77.40;;;;;;6104074;23;20064;-76
2023/02/22 13:44:07;;;;;;;8.55;1.98;;;12.10;76.90;;;;;;6130017;23;20002;-76
2023/02/22 13:46:40;;;;;;;6.38;1.55;;;12.00;76.80;;;;;;6130355;23;19998;-76
2023/02/22 13:49:26;;;;;;;4.75;1.65;;;11.80;76.00;;;;;;6130336;23;20002;-76
2023/02/22 13:51:57;;;;;;;3.38;1.35;;;11.80;76.60;;;;;;6129819;23;20053;-76
2023/02/22 13:54:23;;;;;;;4.70;2.33;;;11.80;76.80;;;;;;6130504;23;20341;-76
2023/02/22 13:56:51;;;;;;;7.05;1.50;;;11.70;75.80;;;;;;6130790;23;20010;-75
2023/02/22 13:59:46;;;;;;;5.07;1.80;;;11.70;76.20;;;;;;6129859;23;20009;-76
2023/02/22 14:02:52;;;;;;;9.40;1.80;;;11.70;76.20;;;;;;6084395;23;20470;-77
2023/02/22 14:05:43;;;;;;;5.18;1.90;;;11.80;76.40;;;;;;6127920;23;20065;-76
2023/02/22 14:08:18;;;;;;;3.85;1.70;;;11.80;75.90;;;;;;6129898;23;20010;-72
2023/02/22 14:10:46;;;;;;;5.22;1.98;;;11.70;75.80;;;;;;6104334;23;20033;-76
2023/02/22 14:13:17;;;;;;;3.63;1.42;;;11.70;76.00;;;;;;6096101;23;20012;-75
2023/02/22 14:16:03;;;;;;;3.60;1.90;;;11.60;76.10;;;;;;6130262;23;20062;-77
2023/02/22 14:18:48;;;;;;;5.78;2.00;;;11.60;76.30;;;;;;6103907;23;20043;-77
2023/02/22 14:21:21;;;;;;;3.55;1.70;;;11.60;75.80;;;;;;6101594;23;20006;-78
2023/02/22 14:23:52;;;;;;;3.42;1.83;;;11.60;76.20;;;;;;6103449;23;20065;-78
2023/02/22 14:26:26;;;;;;;5.40;1.55;;;11.60;75.50;;;;;;6130106;23;20052;-76
2023/02/22 14:28:53;;;;;;;2.88;1.02;;;11.70;75.70;;;;;;6129479;23;20009;-76
2023/02/22 14:31:24;;;;;;;5.65;1.35;;;11.80;75.40;;;;;;6129846;23;20044;-76
2023/02/22 14:33:55;;;;;;;4.00;1.50;;;11.80;75.20;;;;;;6129966;23;20401;-77
2023/02/22 14:36:35;;;;;;;3.30;1.30;;;11.80;73.60;;;;;;6129450;23;20002;-76
2023/02/22 14:39:15;;;;;;;4.25;1.50;;;11.80;74.00;;;;;;6103642;23;20347;-77
2023/02/22 14:41:54;;;;;;;4.30;1.83;;;11.80;73.70;;;;;;6129894;23;20728;-78
2023/02/22 14:44:25;;;;;;;2.65;1.02;;;11.90;74.00;;;;;;6127326;23;20102;-78
2023/02/22 14:46:55;;;;;;;3.30;1.42;;;11.90;73.50;;;;;;6129368;23;20002;-76
2023/02/22 14:49:27;;;;;;;5.95;1.70;;;12.00;73.60;;;;;;6129771;23;19998;-76
2023/02/22 14:52:05;;;;;;;6.30;1.63;;;12.00;72.90;;;;;;6103807;23;20010;-77
2023/02/22 14:54:38;;;;;;;4.93;1.27;;;12.10;71.90;;;;;;6103497;23;20145;-77
2023/02/22 14:57:26;;;;;;;8.07;1.48;;;12.10;71.60;;;;;;6130013;23;20009;-77
2023/02/22 15:00:18;;;;;;;5.97;1.58;;;12.10;71.50;;;;;;6129719;23;20010;-76
2023/02/22 15:02:46;;;;;;;7.47;1.42;;;12.20;71.10;;;;;;6129559;23;20006;-78
2023/02/22 15:05:15;;;;;;;6.53;1.30;;;12.20;71.00;;;;;;6095722;23;20010;-77
2023/02/22 15:07:53;;;;;;;3.22;1.17;;;12.20;70.30;;;;;;6103754;23;20006;-77
2023/02/22 15:10:27;;;;;;;5.85;1.80;;;12.10;70.10;;;;;;6129073;23;20453;-78
2023/02/22 15:13:07;;;;;;;3.70;1.30;;;12.10;70.30;;;;;;6103817;23;20037;-79
2023/02/22 15:15:37;;;;;;;4.13;1.45;;;12.00;70.40;;;;;;6129000;23;20053;-80
2023/02/22 15:18:05;;;;;;;5.10;1.40;;;12.00;70.30;;;;;;6103503;23;20002;-86
2023/02/22 15:20:35;;;;;;;5.60;1.45;;;11.90;69.50;;;;;;6126788;23;20591;-78
2023/02/22 15:23:01;;;;;;;2.58;1.25;;;11.90;69.60;;;;;;6128996;23;20073;-85
2023/02/22 15:25:30;;;;;;;2.90;1.60;;;11.80;68.60;;;;;;6103513;23;20002;-77
2023/02/22 15:28:02;;;;;;;6.22;1.20;;;11.80;68.60;;;;;;6104026;23;20010;-83
2023/02/22 15:30:31;;;;;;;7.80;2.17;;;11.80;69.00;;;;;;6129132;23;20056;-81
2023/02/22 15:33:13;;;;;;;1.58;0.93;;;11.80;68.40;;;;;;6103522;23;20021;-81
2023/02/22 15:35:39;;;;;;;5.78;1.10;;;11.80;68.70;;;;;;6100377;23;20384;-87
2023/02/22 15:38:14;;;;;;;1.73;1.20;;;11.80;68.70;;;;;;6103365;23;20068;-80
2023/02/22 15:40:44;;;;;;;2.75;1.00;;;11.70;68.70;;;;;;6101043;23;20006;-83
2023/02/22 15:43:23;;;;;;;4.63;1.33;;;11.60;69.10;;;;;;6100955;23;20012;-81
2023/02/22 15:45:50;;;;;;;1.90;0.90;;;11.50;69.60;;;;;;6127180;23;20395;-84
2023/02/22 15:48:16;;;;;;;5.15;1.30;;;11.50;69.60;;;;;;6101935;23;20006;-83
2023/02/22 15:50:58;;;;;;;2.80;1.42;;;11.30;70.10;;;;;;6127718;23;20115;-81
2023/02/22 15:53:32;;;;;;;5.13;1.92;;;11.40;70.70;;;;;;6129475;23;20026;-81
2023/02/22 15:56:01;;;;;;;3.03;1.80;;;11.40;70.80;;;;;;6129169;23;20009;-79
2023/02/22 15:58:28;;;;;;;4.82;1.65;;;11.40;70.90;;;;;;6102783;23;20034;-78
2023/02/22 16:01:11;;;;;;;3.83;1.40;;;11.40;70.90;;;;;;6128597;23;20002;-79
2023/02/22 16:03:50;;;;;;;4.07;1.42;;;11.50;70.90;;;;;;6103491;23;20092;-81
2023/02/22 16:06:36;;;;;;;4.00;2.00;;;11.50;71.10;;;;;;6129093;23;20084;-82
2023/02/22 16:09:21;;;;;;;3.42;1.75;;;11.60;71.30;;;;;;6129767;23;20438;-80
2023/02/22 16:11:48;;;;;;;7.97;1.60;;;11.60;71.40;;;;;;6129037;23;20021;-81
2023/02/22 16:14:25;;;;;;;6.50;2.00;;;11.60;71.20;;;;;;6128949;23;20088;-82
2023/02/22 16:17:35;;;;;;;5.00;1.52;;;11.60;70.80;;;;;;6103294;23;20072;-79
2023/02/22 16:20:10;;;;;;;4.18;1.48;;;11.50;71.30;;;;;;6113211;23;20038;-81
2023/02/22 16:22:37;;;;;;;3.28;1.40;;;11.50;71.30;;;;;;6129030;23;20555;-78
2023/02/22 16:25:18;;;;;;;4.30;1.27;;;11.40;71.30;;;;;;6129019;23;20061;-83
2023/02/22 16:28:00;;;;;;;2.92;1.40;;;11.50;71.40;;;;;;6102981;23;20027;-78
2023/02/22 16:30:33;;;;;;;11.10;1.65;;;11.40;70.90;;;;;;6102910;23;20085;-78
2023/02/22 16:33:04;;;;;;;8.23;1.67;;;11.40;71.20;;;;;;6102573;23;20451;-80
2023/02/22 16:35:34;;;;;;;5.38;1.20;;;11.40;71.00;;;;;;6129005;23;20099;-82
2023/02/22 16:38:02;;;;;;;3.47;1.10;;;11.30;70.90;;;;;;6103188;23;20010;-81
2023/02/22 16:40:34;;;;;;;3.22;1.58;;;11.30;70.80;;;;;;6102249;23;20072;-80
2023/02/22 16:43:12;;;;;;;4.00;1.52;;;11.30;71.30;;;;;;6129118;23;20078;-79
2023/02/22 16:45:39;;;;;;;2.42;1.27;;;11.30;69.80;;;;;;6128259;23;20061;-81
2023/02/22 16:48:18;;;;;;;3.88;1.02;;;11.20;69.90;;;;;;6128514;23;20057;-81
2023/02/22 16:50:44;;;;;;;6.65;1.33;;;11.20;69.50;;;;;;6128637;23;20021;-79
2023/02/22 16:53:10;;;;;;;4.40;1.08;;;11.20;69.30;;;;;;6128957;23;20002;-88
2023/02/22 16:55:36;;;;;;;6.78;1.83;;;11.20;69.30;;;;;;6128794;23;20006;-80
2023/02/22 16:58:02;;;;;;;2.33;1.20;;;11.20;69.20;;;;;;6128935;23;20006;-78
2023/02/22 17:00:31;;;;;;;4.43;1.60;;;11.10;69.50;;;;;;6128450;23;20026;-81
2023/02/22 17:03:03;;;;;;;3.35;1.15;;;11.00;69.50;;;;;;6101876;23;20076;-80
2023/02/22 17:05:30;;;;;;;3.17;1.60;;;11.00;69.30;;;;;;6128904;23;20005;-80
2023/02/22 17:07:57;;;;;;;5.60;1.60;;;10.90;68.80;;;;;;6102933;23;20002;-79
2023/02/22 17:10:22;;;;;;;3.47;1.80;;;10.90;69.70;;;;;;6128501;23;20012;-78
2023/02/22 17:12:52;;;;;;;3.40;1.60;;;10.90;70.10;;;;;;6128495;23;20022;-81
2023/02/22 17:15:27;;;;;;;2.70;2.23;;;10.90;69.60;;;;;;6128440;23;20011;-84
2023/02/22 17:17:55;;;;;;;6.75;1.90;;;10.90;69.80;;;;;;6127905;23;20009;-82
2023/02/22 17:20:31;;;;;;;5.32;1.58;;;10.90;69.10;;;;;;6128639;23;20009;-82
2023/02/22 17:23:06;;;;;;;3.75;1.67;;;10.80;69.70;;;;;;6128522;23;20002;-79
2023/02/22 17:25:55;;;;;;;5.75;1.90;;;10.90;69.90;;;;;;6102391;23;20013;-82
2023/02/22 17:28:23;;;;;;;4.75;2.28;;;10.80;69.70;;;;;;6128547;23;19998;-80
2023/02/22 17:30:50;;;;;;;8.70;2.10;;;10.80;69.60;;;;;;6127820;23;20024;-82
2023/02/22 17:33:19;;;;;;;3.65;1.73;;;10.80;69.50;;;;;;6127910;23;20048;-84
2023/02/22 17:35:45;;;;;;;5.72;1.75;;;10.80;69.60;;;;;;6128530;23;20009;-82
2023/02/22 17:38:17;;;;;;;7.15;1.73;;;10.70;69.20;;;;;;6127794;23;20347;-78
2023/02/22 17:40:47;;;;;;;4.15;1.90;;;10.70;69.10;;;;;;6128619;23;20005;-80
2023/02/22 17:43:13;;;;;;;;;;;10.60;69.50;;;;;;6128928;23;20021;-80
2023/02/22 17:45:40;;;;;;;2.92;1.48;;;10.60;69.40;;;;;;6128458;23;19901;-81
2023/02/22 17:48:07;;;;;;;7.43;1.52;;;10.60;68.90;;;;;;6128534;23;20002;-80
2023/02/22 17:50:36;;;;;;;5.68;1.90;;;10.60;69.50;;;;;;6128460;23;20443;-77
2023/02/22 17:53:02;;;;;;;7.25;2.28;;;10.60;69.70;;;;;;6129510;23;20053;-91
2023/02/22 17:55:28;;;;;;;5.20;1.52;;;10.60;69.70;;;;;;6129292;23;20010;-86
2023/02/22 17:57:57;;;;;;;5.28;2.28;;;10.50;69.50;;;;;;6103822;23;20006;-80
2023/02/22 18:00:31;;;;;;;7.53;2.30;;;10.50;69.90;;;;;;6129050;23;20026;-85
2023/02/22 18:03:00;;;;;;;4.70;2.70;;;10.50;70.10;;;;;;6102041;23;20346;-83
2023/02/22 18:05:27;;;;;;;6.88;2.83;;;10.50;70.00;;;;;;6101540;23;20002;-81
2023/02/22 18:07:52;;;;;;;8.65;1.83;;;10.50;69.90;;;;;;6126078;23;20029;-79
2023/02/22 18:10:19;;;;;;;3.47;2.17;;;10.50;69.90;;;;;;6126118;23;20006;-78
2023/02/22 18:12:46;;;;;;;3.92;1.98;;;10.40;70.30;;;;;;6100683;23;20006;-79
2023/02/22 18:15:16;;;;;;;3.00;2.13;;;10.50;70.10;;;;;;6102505;23;20435;-78
2023/02/22 18:17:44;;;;;;;6.22;2.40;;;10.40;69.60;;;;;;6128158;23;20080;-81
2023/02/22 18:20:10;;;;;;;3.78;2.13;;;10.40;69.80;;;;;;6128906;23;20497;-77
2023/02/22 18:22:40;;;;;;;3.30;1.52;;;10.40;69.80;;;;;;6104217;23;20017;-84
2023/02/22 18:25:07;;;;;;;4.65;1.73;;;10.30;69.60;;;;;;6130459;23;20438;-89
2023/02/22 18:27:33;;;;;;;4.05;1.60;;;10.30;69.70;;;;;;6132156;23;20542;-83
2023/02/22 18:29:58;;;;;;;4.25;1.65;;;10.30;69.50;;;;;;6130374;23;20002;-78
2023/02/22 18:32:29;;;;;;;5.60;1.70;;;10.30;69.20;;;;;;6129910;23;20006;-79
2023/02/22 18:34:55;;;;;;;2.67;1.40;;;10.30;69.30;;;;;;6104308;23;20069;-83
2023/02/22 18:37:22;;;;;;;3.80;1.67;;;10.30;69.40;;;;;;6130037;23;20062;-79